Nearby METAR Reports

 

KLOM - Philly Wings F, Pennsylvania, USA
Distance from station: SW 6mi, 10km
Updated: Thu, 24-Apr-2014 10:35am EDT
Clear
Clear
 Wind from WNW
Wind: WNW 12 mph , 19 km/h, Gust: 18 mph , 30 km/h
Temperature: 52°F , 11°C
Dew Point: 19°F , -7°C
Humidity: 28%
Barometer: 30.03 inHg , 1016.9 hPa
Clouds: Clear
Visibility: 10 miles , 16 km
2014/04/24 14:35 KLOM 241435Z AUTO 30010G16KT 270V340 10SM CLR 11/M07 A3003 RMK AO1
KDYL - Doylestown, Pennsylvania, USA
Distance from station: NNE 10mi, 17km
Updated: Thu, 24-Apr-2014 9:54am EDT
Clear
Clear
 Wind from NW
Wind: NW 15 mph , 24 km/h, Gust: 23 mph , 37 km/h
Temperature: 46°F , 8°C
Wind Chill: 40°F , 4°C
Dew Point: 18°F , -8°C
Humidity: 32%
Barometer: 30.01 inHg , 1016.3 hPa
Clouds: Clear
Visibility: 10 miles , 16 km
2014/04/24 13:54 KDYL 241354Z AUTO 31013G20KT 10SM CLR 08/M08 A3001 RMK AO2 SLP165 T00781078
KPNE - Philadelphia/Ne, Pennsylvania, USA
Distance from station: SE 11mi, 18km
Updated: Thu, 24-Apr-2014 10:54am EDT
Clear
Clear
 Wind from WNW
Wind: WNW 16 mph , 26 km/h, Gust: 26 mph , 43 km/h
Temperature: 52°F , 11°C
Dew Point: 16°F , -9°C
Humidity: 24%
Barometer: 30.04 inHg , 1017.3 hPa
Clouds: Clear
Visibility: 10 miles , 16 km
2014/04/24 14:54 KPNE 241454Z AUTO 29014G23KT 10SM CLR 11/M09 A3004 RMK AO2 SLP171 T01111094 50005 TSNO
 
KPTW - Pottstown, Pennsylvania, USA
Distance from station: W 20mi, 32km
Updated: Thu, 24-Apr-2014 9:54am EDT
Clear
Clear
 Wind from WNW
Wind: WNW 9 mph , 15 km/h, Gust: 22 mph , 35 km/h
Temperature: 46°F , 8°C
Wind Chill: 41°F , 5°C
Dew Point: 19°F , -7°C
Humidity: 34%
Barometer: 30.06 inHg , 1017.9 hPa
Clouds: Clear
Visibility: 10 miles , 16 km
2014/04/24 13:54 KPTW 241354Z AUTO 29008G19KT 10SM CLR 08/M07 A3006 RMK AO2 SLP178 T00781072
KTTN - Trenton, New Jersey, USA
Distance from station: ENE 20mi, 32km
Updated: Thu, 24-Apr-2014 9:53am EDT
Clear
Clear
 Wind from NNW
Wind: NNW 18 mph , 30 km/h, Gust: 29 mph , 46 km/h
Temperature: 48°F , 9°C
Wind Chill: 41°F , 5°C
Dew Point: 18°F , -8°C
Humidity: 29%
Barometer: 29.99 inHg , 1015.6 hPa
Clouds: Clear
Visibility: 10 miles , 16 km
2014/04/24 13:53 KTTN 241353Z 33016G25KT 10SM CLR 09/M08 A2999 RMK AO2 PK WND 32027/1309 SLP152 T00941083
KUKT - Quakertown Arp, Pennsylvania, USA
Distance from station: NNW 20mi, 32km
Updated: Thu, 24-Apr-2014 10:55am EDT
Clear
Clear
 Wind from W
Wind: W 10 mph , 17 km/h, Gust: 17 mph , 28 km/h
Temperature: 50°F , 10°C
Wind Chill: 46°F , 8°C
Dew Point: 18°F , -8°C
Humidity: 28%
Barometer: 30.03 inHg , 1016.9 hPa
Clouds: Clear
Visibility: 10 miles , 16 km
2014/04/24 14:55 KUKT 241455Z AUTO 26009G15KT 10SM CLR 10/M08 A3003 RMK AO1
 
KPHL - Philadelphia, Pennsylvania, USA
Distance from station: S 22mi, 36km
Updated: Thu, 24-Apr-2014 9:54am EDT
Clear
Clear
 Wind from WNW
Wind: WNW 17 mph , 28 km/h, Gust: 28 mph , 44 km/h
Temperature: 48°F , 9°C
Wind Chill: 42°F , 6°C
Dew Point: 12°F , -11°C
Humidity: 23%
Barometer: 30.06 inHg , 1017.9 hPa
Clouds: Clear
Visibility: 10 miles , 16 km
2014/04/24 13:54 KPHL 241354Z 30015G24KT 10SM CLR 09/M11 A3006 RMK AO2 PK WND 32026/1326 SLP178 T00941106
KVAY - Mount Holly, New Jersey, USA
Distance from station: SE 25mi, 41km
Updated: Thu, 24-Apr-2014 10:54am EDT
Clear
Clear
 Wind from WNW
Wind: WNW 18 mph , 30 km/h, Gust: 28 mph , 44 km/h
Temperature: 52°F , 11°C
Dew Point: 16°F , -9°C
Humidity: 24%
Barometer: 30.01 inHg , 1016.3 hPa
Clouds: Clear
Visibility: 10 miles , 16 km
2014/04/24 14:54 KVAY 241454Z AUTO 30016G24KT 10SM CLR 11/M09 A3001 RMK AO2 PK WND 29028/1434 SLP161 T01061089 50001
KXLL - Allentown Queen, Pennsylvania, USA
Distance from station: NNW 31mi, 49km
Updated: Thu, 24-Apr-2014 10:35am EDT
Clear
Clear
 Wind from WNW
Wind: WNW 12 mph , 19 km/h, Gust: 21 mph , 33 km/h
Temperature: 50°F , 10°C
Wind Chill: 45°F , 7°C
Dew Point: 19°F , -7°C
Humidity: 30%
Barometer: 30.04 inHg , 1017.3 hPa
Clouds: Clear
Visibility: 10 miles , 16 km
2014/04/24 14:35 KXLL 241435Z AUTO 29010G18KT 10SM CLR 10/M07 A3004 RMK AO2
 
KWRI - Wrightst/Mcguire, New Jersey, USA
Distance from station: ESE 34mi, 54km
Updated: Thu, 24-Apr-2014 9:58am EDT
Clear
Clear
 Wind from NW
Wind: NW 22 mph , 35 km/h, Gust: 30 mph , 48 km/h
Temperature: 50°F , 10°C
Wind Chill: 43°F , 6°C
Dew Point: 16°F , -9°C
Humidity: 25%
Barometer: 29.97 inHg , 1014.9 hPa
Clouds: Clear
Visibility: 10 miles , 16 km
2014/04/24 13:58 KWRI 241358Z AUTO 32019G26KT 10SM CLR 10/M09 A2997 RMK AO2 PK WND 33031/57 SLP153 T00981085
KABE - Allentown, Pennsylvania, USA
Distance from station: NNW 35mi, 56km
Updated: Thu, 24-Apr-2014 10:51am EDT
Clear
Clear
 Wind from WNW
Wind: WNW 16 mph , 26 km/h, Gust: 23 mph , 37 km/h
Temperature: 52°F , 11°C
Dew Point: 16°F , -9°C
Humidity: 24%
Barometer: 30.03 inHg , 1016.9 hPa
Clouds: Clear
Visibility: 10 miles , 16 km
2014/04/24 14:51 KABE 241451Z 29014G20KT 10SM CLR 11/M09 A3003 RMK AO2 PK WND 31027/1404 SLP170 T01061089 51006
KMQS - Coatesville, Pennsylvania, USA
Distance from station: WSW 39mi, 63km
Updated: Thu, 24-Apr-2014 10:35am EDT
Clear
Clear
 Wind from WNW
Wind: WNW 18 mph , 30 km/h, Gust: 24 mph , 39 km/h
Temperature: 48°F , 9°C
Wind Chill: 41°F , 5°C
Dew Point: 16°F , -9°C
Humidity: 27%
Barometer: 30.06 inHg , 1017.9 hPa
Clouds: Clear
Visibility: 10 miles , 16 km
2014/04/24 14:35 KMQS 241435Z AUTO 30016G21KT 10SM CLR 09/M09 A3006 RMK AO2
 
KSMQ - Somerville, New Jersey, USA
Distance from station: NE 40mi, 64km
Updated: Thu, 24-Apr-2014 10:53am EDT
Clear
Clear
 Wind from NW
Wind: NW 12 mph , 19 km/h, Gust: 29 mph , 46 km/h
Temperature: 52°F , 11°C
Dew Point: 14°F , -10°C
Humidity: 22%
Barometer: 29.96 inHg , 1014.6 hPa
Clouds: Clear
Visibility: 10 miles , 16 km
2014/04/24 14:53 KSMQ 241453Z AUTO 32010G25KT 10SM CLR 11/M10 A2996 RMK AO2 PK WND 31028/1442 SLP147 T01061100 51003
KILG - Wilmington, Delaware, USA
Distance from station: SSW 42mi, 68km
Updated: Thu, 24-Apr-2014 10:51am EDT
Clear
Clear
 Wind from NNW
Wind: NNW 20 mph , 31 km/h
Temperature: 54°F , 12°C
Dew Point: 19°F , -7°C
Humidity: 26%
Barometer: 30.07 inHg , 1018.3 hPa
Clouds: Clear
Visibility: 10 miles , 16 km
2014/04/24 14:51 KILG 241451Z 33017KT 10SM CLR 12/M07 A3007 RMK AO2 PK WND 30026/1413 SLP181 T01171067 50003
KRDG - Reading, Pennsylvania, USA
Distance from station: WNW 43mi, 70km
Updated: Thu, 24-Apr-2014 10:54am EDT
Clear
Clear
 Wind from NW
Wind: NW 17 mph , 28 km/h, Gust: 26 mph , 43 km/h
Temperature: 50°F , 10°C
Wind Chill: 44°F , 7°C
Dew Point: 18°F , -8°C
Humidity: 28%
Barometer: 30.06 inHg , 1017.9 hPa
Clouds: Clear
Visibility: 10 miles , 16 km
2014/04/24 14:54 KRDG 241454Z 31015G23KT 10SM CLR 10/M08 A3006 RMK AO2 SLP185 T01001078 51004
 
KNEL - Lakehurst Nas, New Jersey, USA
Distance from station: ESE 46mi, 74km
Updated: Thu, 24-Apr-2014 9:00am EDT
NOT Current
Clear
Clear
 Wind from WNW
Wind: WNW 24 mph , 39 km/h, Gust: 31 mph , 50 km/h
Temperature: 46°F , 8°C
Wind Chill: 38°F , 3°C
Dew Point: 18°F , -8°C
Humidity: 32%
Barometer: 29.96 inHg , 1014.6 hPa
Clouds: Clear
2014/04/24 13:00 KNEL 241300Z AUTO 30021G27KT CLR 08/M08 A2996 RMK AO2 PK WND 30028/1235 SLP144 T00781083 $
KMJX - Toms River, New Jersey, USA
Distance from station: ESE 50mi, 80km
Updated: Thu, 24-Apr-2014 10:55am EDT
Clear
Clear
 Wind from WNW
Wind: WNW 23 mph , 37 km/h, Gust: 31 mph , 50 km/h
Temperature: 52°F , 11°C
Dew Point: 18°F , -8°C
Humidity: 26%
Barometer: 29.97 inHg , 1014.9 hPa
Clouds: Clear
Visibility: 10 miles , 16 km
2014/04/24 14:55 KMJX 241455Z AUTO 30020G27KT 10SM CLR 11/M08 A2997 RMK AO1 52003